sensor_id;sensor_type;location;lat;lon;timestamp;temperature;humidity
15113;DHT22;7657;50.140;7.076;2024-02-21T00:01:15;6.20;99.90
15113;DHT22;7657;50.140;7.076;2024-02-21T00:03:42;6.20;99.90
15113;DHT22;7657;50.140;7.076;2024-02-21T00:06:10;6.20;99.90
15113;DHT22;7657;50.140;7.076;2024-02-21T00:08:37;6.10;99.90
15113;DHT22;7657;50.140;7.076;2024-02-21T00:11:04;6.10;99.90
15113;DHT22;7657;50.140;7.076;2024-02-21T00:13:31;6.10;99.90
15113;DHT22;7657;50.140;7.076;2024-02-21T00:15:59;6.10;99.90
15113;DHT22;7657;50.140;7.076;2024-02-21T00:18:26;6.00;99.90
15113;DHT22;7657;50.140;7.076;2024-02-21T00:20:53;6.00;99.90
15113;DHT22;7657;50.140;7.076;2024-02-21T00:23:21;6.00;99.90
15113;DHT22;7657;50.140;7.076;2024-02-21T00:25:48;5.90;99.90
15113;DHT22;7657;50.140;7.076;2024-02-21T00:28:15;5.90;99.90
15113;DHT22;7657;50.140;7.076;2024-02-21T00:30:42;5.90;99.90
15113;DHT22;7657;50.140;7.076;2024-02-21T00:33:09;5.90;99.90
15113;DHT22;7657;50.140;7.076;2024-02-21T00:35:36;5.90;99.90
15113;DHT22;7657;50.140;7.076;2024-02-21T00:38:03;5.90;99.90
15113;DHT22;7657;50.140;7.076;2024-02-21T00:40:32;6.00;99.90
15113;DHT22;7657;50.140;7.076;2024-02-21T00:42:58;5.90;99.90
15113;DHT22;7657;50.140;7.076;2024-02-21T00:45:25;5.90;99.90
15113;DHT22;7657;50.140;7.076;2024-02-21T00:47:52;5.90;99.90
15113;DHT22;7657;50.140;7.076;2024-02-21T00:50:19;6.00;99.90
15113;DHT22;7657;50.140;7.076;2024-02-21T00:52:46;6.00;99.90
15113;DHT22;7657;50.140;7.076;2024-02-21T00:55:14;6.00;99.90
15113;DHT22;7657;50.140;7.076;2024-02-21T00:57:42;6.10;99.90
15113;DHT22;7657;50.140;7.076;2024-02-21T01:00:10;6.10;99.90
15113;DHT22;7657;50.140;7.076;2024-02-21T01:02:37;6.10;99.90
15113;DHT22;7657;50.140;7.076;2024-02-21T01:05:04;6.20;99.90
15113;DHT22;7657;50.140;7.076;2024-02-21T01:07:31;6.20;99.90
15113;DHT22;7657;50.140;7.076;2024-02-21T01:09:58;6.30;99.90
15113;DHT22;7657;50.140;7.076;2024-02-21T01:12:25;6.30;99.90
15113;DHT22;7657;50.140;7.076;2024-02-21T01:14:53;6.40;99.90
15113;DHT22;7657;50.140;7.076;2024-02-21T01:17:20;6.40;99.90
15113;DHT22;7657;50.140;7.076;2024-02-21T01:19:47;6.50;99.90
15113;DHT22;7657;50.140;7.076;2024-02-21T01:22:14;6.70;99.90
15113;DHT22;7657;50.140;7.076;2024-02-21T01:24:41;6.70;99.90
15113;DHT22;7657;50.140;7.076;2024-02-21T01:27:08;6.80;99.90
15113;DHT22;7657;50.140;7.076;2024-02-21T01:29:35;6.80;99.90
15113;DHT22;7657;50.140;7.076;2024-02-21T01:32:04;6.80;99.90
15113;DHT22;7657;50.140;7.076;2024-02-21T01:34:31;6.90;99.90
15113;DHT22;7657;50.140;7.076;2024-02-21T01:36:57;6.90;99.90
15113;DHT22;7657;50.140;7.076;2024-02-21T01:39:25;7.00;99.90
15113;DHT22;7657;50.140;7.076;2024-02-21T01:41:52;7.00;99.90
15113;DHT22;7657;50.140;7.076;2024-02-21T01:44:19;7.00;99.90
15113;DHT22;7657;50.140;7.076;2024-02-21T01:46:46;7.00;99.90
15113;DHT22;7657;50.140;7.076;2024-02-21T01:49:14;7.00;99.90
15113;DHT22;7657;50.140;7.076;2024-02-21T01:51:41;6.90;99.90
15113;DHT22;7657;50.140;7.076;2024-02-21T01:54:08;6.90;99.90
15113;DHT22;7657;50.140;7.076;2024-02-21T01:56:36;6.90;99.90
15113;DHT22;7657;50.140;7.076;2024-02-21T01:59:03;6.80;99.90
15113;DHT22;7657;50.140;7.076;2024-02-21T02:01:30;6.80;99.90
15113;DHT22;7657;50.140;7.076;2024-02-21T02:03:59;6.80;99.90
15113;DHT22;7657;50.140;7.076;2024-02-21T02:06:27;6.80;99.90
15113;DHT22;7657;50.140;7.076;2024-02-21T02:08:54;6.70;99.90
15113;DHT22;7657;50.140;7.076;2024-02-21T02:11:21;6.60;99.90
15113;DHT22;7657;50.140;7.076;2024-02-21T02:13:48;6.60;99.90
15113;DHT22;7657;50.140;7.076;2024-02-21T02:16:15;6.60;99.90
15113;DHT22;7657;50.140;7.076;2024-02-21T02:18:42;6.60;99.90
15113;DHT22;7657;50.140;7.076;2024-02-21T02:21:21;6.60;99.90
15113;DHT22;7657;50.140;7.076;2024-02-21T02:23:51;6.60;99.90
15113;DHT22;7657;50.140;7.076;2024-02-21T02:26:18;6.50;99.90
15113;DHT22;7657;50.140;7.076;2024-02-21T02:28:45;6.50;99.90
15113;DHT22;7657;50.140;7.076;2024-02-21T02:31:12;6.50;99.90
15113;DHT22;7657;50.140;7.076;2024-02-21T02:33:39;6.50;99.90
15113;DHT22;7657;50.140;7.076;2024-02-21T02:36:06;6.40;99.90
15113;DHT22;7657;50.140;7.076;2024-02-21T02:38:33;6.50;99.90
15113;DHT22;7657;50.140;7.076;2024-02-21T02:41:01;6.50;99.90
15113;DHT22;7657;50.140;7.076;2024-02-21T02:43:28;6.50;99.90
15113;DHT22;7657;50.140;7.076;2024-02-21T02:45:55;6.50;99.90
15113;DHT22;7657;50.140;7.076;2024-02-21T02:48:22;6.50;99.90
15113;DHT22;7657;50.140;7.076;2024-02-21T02:50:49;6.50;99.90
15113;DHT22;7657;50.140;7.076;2024-02-21T02:53:16;6.60;99.90
15113;DHT22;7657;50.140;7.076;2024-02-21T02:55:42;6.60;99.90
15113;DHT22;7657;50.140;7.076;2024-02-21T02:58:11;6.60;99.90
15113;DHT22;7657;50.140;7.076;2024-02-21T03:00:38;6.70;99.90
15113;DHT22;7657;50.140;7.076;2024-02-21T03:03:05;6.50;99.90
15113;DHT22;7657;50.140;7.076;2024-02-21T03:05:34;6.40;99.90
15113;DHT22;7657;50.140;7.076;2024-02-21T03:08:01;6.40;99.90
15113;DHT22;7657;50.140;7.076;2024-02-21T03:10:32;6.40;99.90
15113;DHT22;7657;50.140;7.076;2024-02-21T03:12:59;6.40;99.90
15113;DHT22;7657;50.140;7.076;2024-02-21T03:15:27;6.40;99.90
15113;DHT22;7657;50.140;7.076;2024-02-21T03:17:54;6.40;99.90
15113;DHT22;7657;50.140;7.076;2024-02-21T03:20:21;6.30;99.90
15113;DHT22;7657;50.140;7.076;2024-02-21T03:22:48;6.30;99.90
15113;DHT22;7657;50.140;7.076;2024-02-21T03:25:15;6.30;99.90
15113;DHT22;7657;50.140;7.076;2024-02-21T03:27:42;6.30;99.90
15113;DHT22;7657;50.140;7.076;2024-02-21T03:30:10;6.30;99.90
15113;DHT22;7657;50.140;7.076;2024-02-21T03:32:39;6.40;99.90
15113;DHT22;7657;50.140;7.076;2024-02-21T03:35:06;6.40;99.90
15113;DHT22;7657;50.140;7.076;2024-02-21T03:37:33;6.40;99.90
15113;DHT22;7657;50.140;7.076;2024-02-21T03:40:00;6.40;99.90
15113;DHT22;7657;50.140;7.076;2024-02-21T03:42:27;6.40;99.90
15113;DHT22;7657;50.140;7.076;2024-02-21T03:44:55;6.40;99.90
15113;DHT22;7657;50.140;7.076;2024-02-21T03:47:22;6.40;99.90
15113;DHT22;7657;50.140;7.076;2024-02-21T03:49:50;6.40;99.90
15113;DHT22;7657;50.140;7.076;2024-02-21T03:52:17;6.50;99.90
15113;DHT22;7657;50.140;7.076;2024-02-21T03:54:44;6.50;99.90
15113;DHT22;7657;50.140;7.076;2024-02-21T03:57:11;6.40;99.90
15113;DHT22;7657;50.140;7.076;2024-02-21T03:59:38;6.40;99.90
15113;DHT22;7657;50.140;7.076;2024-02-21T04:02:05;6.30;99.90
15113;DHT22;7657;50.140;7.076;2024-02-21T04:04:34;6.30;99.90
15113;DHT22;7657;50.140;7.076;2024-02-21T04:07:04;6.20;99.90
15113;DHT22;7657;50.140;7.076;2024-02-21T04:09:32;6.30;99.90
15113;DHT22;7657;50.140;7.076;2024-02-21T04:12:00;6.40;99.90
15113;DHT22;7657;50.140;7.076;2024-02-21T04:14:27;6.30;99.90
15113;DHT22;7657;50.140;7.076;2024-02-21T04:16:54;6.30;99.90
15113;DHT22;7657;50.140;7.076;2024-02-21T04:19:21;6.30;99.90
15113;DHT22;7657;50.140;7.076;2024-02-21T04:21:48;6.30;99.90
15113;DHT22;7657;50.140;7.076;2024-02-21T04:24:16;6.30;99.90
15113;DHT22;7657;50.140;7.076;2024-02-21T04:26:43;6.30;99.90
15113;DHT22;7657;50.140;7.076;2024-02-21T04:29:10;6.30;99.90
15113;DHT22;7657;50.140;7.076;2024-02-21T04:31:37;6.30;99.90
15113;DHT22;7657;50.140;7.076;2024-02-21T04:34:06;6.20;99.90
15113;DHT22;7657;50.140;7.076;2024-02-21T04:36:33;6.20;99.90
15113;DHT22;7657;50.140;7.076;2024-02-21T04:39:00;6.20;99.90
15113;DHT22;7657;50.140;7.076;2024-02-21T04:41:28;6.20;99.90
15113;DHT22;7657;50.140;7.076;2024-02-21T04:43:55;6.30;99.90
15113;DHT22;7657;50.140;7.076;2024-02-21T04:46:22;6.40;99.90
15113;DHT22;7657;50.140;7.076;2024-02-21T04:48:49;6.40;99.90
15113;DHT22;7657;50.140;7.076;2024-02-21T04:51:16;6.40;99.90
15113;DHT22;7657;50.140;7.076;2024-02-21T04:53:42;6.50;99.90
15113;DHT22;7657;50.140;7.076;2024-02-21T04:56:10;6.40;99.90
15113;DHT22;7657;50.140;7.076;2024-02-21T04:58:39;6.50;99.90
15113;DHT22;7657;50.140;7.076;2024-02-21T05:01:06;6.50;99.90
15113;DHT22;7657;50.140;7.076;2024-02-21T05:03:33;6.60;99.90
15113;DHT22;7657;50.140;7.076;2024-02-21T05:06:00;6.60;99.90
15113;DHT22;7657;50.140;7.076;2024-02-21T05:08:27;6.60;99.90
15113;DHT22;7657;50.140;7.076;2024-02-21T05:10:54;6.60;99.90
15113;DHT22;7657;50.140;7.076;2024-02-21T05:13:21;6.60;99.90
15113;DHT22;7657;50.140;7.076;2024-02-21T05:15:49;6.60;99.90
15113;DHT22;7657;50.140;7.076;2024-02-21T05:18:16;6.60;99.90
15113;DHT22;7657;50.140;7.076;2024-02-21T05:20:43;6.50;99.90
15113;DHT22;7657;50.140;7.076;2024-02-21T05:23:10;6.30;99.90
15113;DHT22;7657;50.140;7.076;2024-02-21T05:25:37;6.30;99.90
15113;DHT22;7657;50.140;7.076;2024-02-21T05:28:04;6.20;99.90
15113;DHT22;7657;50.140;7.076;2024-02-21T05:30:32;6.20;99.90
15113;DHT22;7657;50.140;7.076;2024-02-21T05:33:04;6.10;99.90
15113;DHT22;7657;50.140;7.076;2024-02-21T05:35:31;6.20;99.90
15113;DHT22;7657;50.140;7.076;2024-02-21T05:37:58;6.20;99.90
15113;DHT22;7657;50.140;7.076;2024-02-21T05:40:25;6.20;99.90
15113;DHT22;7657;50.140;7.076;2024-02-21T05:42:52;6.10;99.90
15113;DHT22;7657;50.140;7.076;2024-02-21T05:45:19;6.20;99.90
15113;DHT22;7657;50.140;7.076;2024-02-21T05:47:46;6.30;99.90
15113;DHT22;7657;50.140;7.076;2024-02-21T05:50:14;6.30;99.90
15113;DHT22;7657;50.140;7.076;2024-02-21T05:52:41;6.30;99.90
15113;DHT22;7657;50.140;7.076;2024-02-21T05:55:08;6.40;99.90
15113;DHT22;7657;50.140;7.076;2024-02-21T05:57:35;6.50;99.90
15113;DHT22;7657;50.140;7.076;2024-02-21T06:00:04;6.40;99.90
15113;DHT22;7657;50.140;7.076;2024-02-21T06:02:31;6.40;99.90
15113;DHT22;7657;50.140;7.076;2024-02-21T06:04:58;6.50;99.90
15113;DHT22;7657;50.140;7.076;2024-02-21T06:07:27;6.40;99.90
15113;DHT22;7657;50.140;7.076;2024-02-21T06:09:54;6.30;99.90
15113;DHT22;7657;50.140;7.076;2024-02-21T06:12:21;6.40;99.90
15113;DHT22;7657;50.140;7.076;2024-02-21T06:14:48;6.50;99.90
15113;DHT22;7657;50.140;7.076;2024-02-21T06:17:15;6.40;99.90
15113;DHT22;7657;50.140;7.076;2024-02-21T06:19:43;6.50;99.90
15113;DHT22;7657;50.140;7.076;2024-02-21T06:22:10;6.50;99.90
15113;DHT22;7657;50.140;7.076;2024-02-21T06:24:38;6.60;99.90
15113;DHT22;7657;50.140;7.076;2024-02-21T06:27:06;6.60;99.90
15113;DHT22;7657;50.140;7.076;2024-02-21T06:29:33;6.60;99.90
15113;DHT22;7657;50.140;7.076;2024-02-21T06:32:00;6.60;99.90
15113;DHT22;7657;50.140;7.076;2024-02-21T06:34:27;6.50;99.90
15113;DHT22;7657;50.140;7.076;2024-02-21T06:36:54;6.50;99.90
15113;DHT22;7657;50.140;7.076;2024-02-21T06:39:20;6.70;99.90
15113;DHT22;7657;50.140;7.076;2024-02-21T06:41:50;6.60;99.90
15113;DHT22;7657;50.140;7.076;2024-02-21T06:44:18;6.70;99.90
15113;DHT22;7657;50.140;7.076;2024-02-21T06:46:45;6.60;99.90
15113;DHT22;7657;50.140;7.076;2024-02-21T06:49:12;6.70;99.90
15113;DHT22;7657;50.140;7.076;2024-02-21T06:51:41;6.70;99.90
15113;DHT22;7657;50.140;7.076;2024-02-21T06:54:09;6.60;99.90
15113;DHT22;7657;50.140;7.076;2024-02-21T06:56:37;6.60;99.90
15113;DHT22;7657;50.140;7.076;2024-02-21T06:59:05;6.60;99.90
15113;DHT22;7657;50.140;7.076;2024-02-21T07:01:32;6.50;99.90
15113;DHT22;7657;50.140;7.076;2024-02-21T07:03:59;6.40;99.90
15113;DHT22;7657;50.140;7.076;2024-02-21T07:06:26;6.30;99.90
15113;DHT22;7657;50.140;7.076;2024-02-21T07:08:53;6.40;99.90
15113;DHT22;7657;50.140;7.076;2024-02-21T07:11:20;6.60;99.90
15113;DHT22;7657;50.140;7.076;2024-02-21T07:13:47;6.60;99.90
15113;DHT22;7657;50.140;7.076;2024-02-21T07:16:15;6.50;99.90
15113;DHT22;7657;50.140;7.076;2024-02-21T07:18:42;6.40;99.90
15113;DHT22;7657;50.140;7.076;2024-02-21T07:21:09;6.60;99.90
15113;DHT22;7657;50.140;7.076;2024-02-21T07:23:36;6.50;99.90
15113;DHT22;7657;50.140;7.076;2024-02-21T07:26:04;6.60;99.90
15113;DHT22;7657;50.140;7.076;2024-02-21T07:28:31;6.60;99.90
15113;DHT22;7657;50.140;7.076;2024-02-21T07:30:59;6.50;99.90
15113;DHT22;7657;50.140;7.076;2024-02-21T07:33:27;6.60;99.90
15113;DHT22;7657;50.140;7.076;2024-02-21T07:35:56;6.60;99.90
15113;DHT22;7657;50.140;7.076;2024-02-21T07:38:23;6.70;99.90
15113;DHT22;7657;50.140;7.076;2024-02-21T07:40:50;6.60;99.90
15113;DHT22;7657;50.140;7.076;2024-02-21T07:43:17;6.60;99.90
15113;DHT22;7657;50.140;7.076;2024-02-21T07:45:44;6.70;99.90
15113;DHT22;7657;50.140;7.076;2024-02-21T07:48:11;6.70;99.90
15113;DHT22;7657;50.140;7.076;2024-02-21T07:50:39;6.70;99.90
15113;DHT22;7657;50.140;7.076;2024-02-21T07:53:06;6.70;99.90
15113;DHT22;7657;50.140;7.076;2024-02-21T07:55:32;6.70;99.90
15113;DHT22;7657;50.140;7.076;2024-02-21T07:57:59;6.70;99.90
15113;DHT22;7657;50.140;7.076;2024-02-21T08:00:27;6.70;99.90
15113;DHT22;7657;50.140;7.076;2024-02-21T08:02:53;6.60;99.90
15113;DHT22;7657;50.140;7.076;2024-02-21T08:05:20;6.70;99.90
15113;DHT22;7657;50.140;7.076;2024-02-21T08:07:49;6.60;99.90
15113;DHT22;7657;50.140;7.076;2024-02-21T08:10:16;6.70;99.90
15113;DHT22;7657;50.140;7.076;2024-02-21T08:12:43;6.60;99.90
15113;DHT22;7657;50.140;7.076;2024-02-21T08:15:10;6.60;99.90
15113;DHT22;7657;50.140;7.076;2024-02-21T08:17:38;6.60;99.90
15113;DHT22;7657;50.140;7.076;2024-02-21T08:20:05;6.70;99.90
15113;DHT22;7657;50.140;7.076;2024-02-21T08:22:32;6.70;99.90
15113;DHT22;7657;50.140;7.076;2024-02-21T08:25:01;6.70;99.90
15113;DHT22;7657;50.140;7.076;2024-02-21T08:27:31;6.70;99.90
15113;DHT22;7657;50.140;7.076;2024-02-21T08:29:58;6.70;99.90
15113;DHT22;7657;50.140;7.076;2024-02-21T08:32:24;6.80;99.90
15113;DHT22;7657;50.140;7.076;2024-02-21T08:34:51;6.80;99.90
15113;DHT22;7657;50.140;7.076;2024-02-21T08:37:18;6.80;99.90
15113;DHT22;7657;50.140;7.076;2024-02-21T08:39:45;6.90;99.90
15113;DHT22;7657;50.140;7.076;2024-02-21T08:42:15;6.80;99.90
15113;DHT22;7657;50.140;7.076;2024-02-21T08:44:42;6.80;99.90
15113;DHT22;7657;50.140;7.076;2024-02-21T08:47:09;6.90;99.90
15113;DHT22;7657;50.140;7.076;2024-02-21T08:49:36;7.00;99.90
15113;DHT22;7657;50.140;7.076;2024-02-21T08:52:03;6.90;99.90
15113;DHT22;7657;50.140;7.076;2024-02-21T08:54:31;6.80;99.90
15113;DHT22;7657;50.140;7.076;2024-02-21T08:56:58;6.70;99.90
15113;DHT22;7657;50.140;7.076;2024-02-21T08:59:26;6.80;99.90
15113;DHT22;7657;50.140;7.076;2024-02-21T09:01:53;7.00;99.90
15113;DHT22;7657;50.140;7.076;2024-02-21T09:04:20;6.90;99.90
15113;DHT22;7657;50.140;7.076;2024-02-21T09:06:47;6.80;99.90
15113;DHT22;7657;50.140;7.076;2024-02-21T09:09:14;6.80;99.90
15113;DHT22;7657;50.140;7.076;2024-02-21T09:11:41;6.80;99.90
15113;DHT22;7657;50.140;7.076;2024-02-21T09:14:08;6.80;99.90
15113;DHT22;7657;50.140;7.076;2024-02-21T09:16:36;6.80;99.90
15113;DHT22;7657;50.140;7.076;2024-02-21T09:19:03;6.80;99.90
15113;DHT22;7657;50.140;7.076;2024-02-21T09:21:30;7.00;99.90
15113;DHT22;7657;50.140;7.076;2024-02-21T09:23:56;7.00;99.90
15113;DHT22;7657;50.140;7.076;2024-02-21T09:26:23;7.10;99.90
15113;DHT22;7657;50.140;7.076;2024-02-21T09:28:50;7.00;99.90
15113;DHT22;7657;50.140;7.076;2024-02-21T09:31:17;7.00;99.90
15113;DHT22;7657;50.140;7.076;2024-02-21T09:33:46;7.00;99.90
15113;DHT22;7657;50.140;7.076;2024-02-21T09:36:13;7.00;99.90
15113;DHT22;7657;50.140;7.076;2024-02-21T09:38:40;7.10;99.90
15113;DHT22;7657;50.140;7.076;2024-02-21T09:41:15;7.20;99.90
15113;DHT22;7657;50.140;7.076;2024-02-21T09:43:44;7.10;99.90
15113;DHT22;7657;50.140;7.076;2024-02-21T09:46:17;7.10;99.90
15113;DHT22;7657;50.140;7.076;2024-02-21T09:49:00;7.10;99.90
15113;DHT22;7657;50.140;7.076;2024-02-21T09:51:30;7.20;99.90
15113;DHT22;7657;50.140;7.076;2024-02-21T09:53:59;7.30;99.90
15113;DHT22;7657;50.140;7.076;2024-02-21T09:56:27;7.30;99.90
15113;DHT22;7657;50.140;7.076;2024-02-21T09:58:54;7.30;99.90
15113;DHT22;7657;50.140;7.076;2024-02-21T10:01:21;7.40;99.90
15113;DHT22;7657;50.140;7.076;2024-02-21T10:03:49;7.60;99.90
15113;DHT22;7657;50.140;7.076;2024-02-21T10:06:16;7.80;99.90
15113;DHT22;7657;50.140;7.076;2024-02-21T10:08:43;7.90;99.90
15113;DHT22;7657;50.140;7.076;2024-02-21T10:11:10;7.90;99.90
15113;DHT22;7657;50.140;7.076;2024-02-21T10:13:37;8.00;99.90
15113;DHT22;7657;50.140;7.076;2024-02-21T10:16:05;7.90;99.90
15113;DHT22;7657;50.140;7.076;2024-02-21T10:18:32;8.00;99.90
15113;DHT22;7657;50.140;7.076;2024-02-21T10:21:02;8.10;99.90
15113;DHT22;7657;50.140;7.076;2024-02-21T10:23:41;8.20;99.90
15113;DHT22;7657;50.140;7.076;2024-02-21T10:26:08;8.20;99.90
15113;DHT22;7657;50.140;7.076;2024-02-21T10:28:36;8.30;99.90
15113;DHT22;7657;50.140;7.076;2024-02-21T10:31:04;8.30;99.90
15113;DHT22;7657;50.140;7.076;2024-02-21T10:33:30;8.30;99.90
15113;DHT22;7657;50.140;7.076;2024-02-21T10:36:08;8.30;99.90
15113;DHT22;7657;50.140;7.076;2024-02-21T10:38:36;8.20;99.90
15113;DHT22;7657;50.140;7.076;2024-02-21T10:41:05;8.20;99.90
15113;DHT22;7657;50.140;7.076;2024-02-21T10:43:37;8.30;99.90
15113;DHT22;7657;50.140;7.076;2024-02-21T10:46:06;8.40;99.90
15113;DHT22;7657;50.140;7.076;2024-02-21T10:48:41;8.50;99.90
15113;DHT22;7657;50.140;7.076;2024-02-21T10:51:15;8.60;99.90
15113;DHT22;7657;50.140;7.076;2024-02-21T10:53:45;8.40;99.90
15113;DHT22;7657;50.140;7.076;2024-02-21T10:56:22;8.50;99.90
15113;DHT22;7657;50.140;7.076;2024-02-21T10:58:49;8.60;99.90
15113;DHT22;7657;50.140;7.076;2024-02-21T11:01:18;8.50;99.90
15113;DHT22;7657;50.140;7.076;2024-02-21T11:03:46;8.60;99.90
15113;DHT22;7657;50.140;7.076;2024-02-21T11:06:16;8.50;99.90
15113;DHT22;7657;50.140;7.076;2024-02-21T11:08:44;8.60;99.90
15113;DHT22;7657;50.140;7.076;2024-02-21T11:11:12;8.70;99.90
15113;DHT22;7657;50.140;7.076;2024-02-21T11:13:43;8.40;99.90
15113;DHT22;7657;50.140;7.076;2024-02-21T11:16:20;8.60;99.90
15113;DHT22;7657;50.140;7.076;2024-02-21T11:18:48;8.40;99.90
15113;DHT22;7657;50.140;7.076;2024-02-21T11:21:17;8.30;99.90
15113;DHT22;7657;50.140;7.076;2024-02-21T11:23:44;8.40;99.90
15113;DHT22;7657;50.140;7.076;2024-02-21T11:26:21;8.40;99.90
15113;DHT22;7657;50.140;7.076;2024-02-21T11:28:56;8.60;99.90
15113;DHT22;7657;50.140;7.076;2024-02-21T11:31:23;8.70;99.90
15113;DHT22;7657;50.140;7.076;2024-02-21T11:33:52;8.80;99.90
15113;DHT22;7657;50.140;7.076;2024-02-21T11:36:25;8.90;99.90
15113;DHT22;7657;50.140;7.076;2024-02-21T11:38:52;8.90;99.90
15113;DHT22;7657;50.140;7.076;2024-02-21T11:41:20;9.00;99.90
15113;DHT22;7657;50.140;7.076;2024-02-21T11:43:48;9.00;99.90
15113;DHT22;7657;50.140;7.076;2024-02-21T11:46:15;8.90;99.90
15113;DHT22;7657;50.140;7.076;2024-02-21T11:48:42;8.90;99.90
15113;DHT22;7657;50.140;7.076;2024-02-21T11:51:10;9.10;99.90
15113;DHT22;7657;50.140;7.076;2024-02-21T11:53:38;9.20;99.90
15113;DHT22;7657;50.140;7.076;2024-02-21T11:56:06;9.20;99.90
15113;DHT22;7657;50.140;7.076;2024-02-21T11:58:33;9.20;99.90
15113;DHT22;7657;50.140;7.076;2024-02-21T12:01:00;9.20;99.90
15113;DHT22;7657;50.140;7.076;2024-02-21T12:03:28;9.30;99.90
15113;DHT22;7657;50.140;7.076;2024-02-21T12:05:55;9.10;99.90
15113;DHT22;7657;50.140;7.076;2024-02-21T12:08:24;9.20;99.90
15113;DHT22;7657;50.140;7.076;2024-02-21T12:10:52;9.10;99.90
15113;DHT22;7657;50.140;7.076;2024-02-21T12:13:22;9.20;99.90
15113;DHT22;7657;50.140;7.076;2024-02-21T12:15:49;9.30;99.90
15113;DHT22;7657;50.140;7.076;2024-02-21T12:18:16;9.30;99.90
15113;DHT22;7657;50.140;7.076;2024-02-21T12:20:43;9.20;99.90
15113;DHT22;7657;50.140;7.076;2024-02-21T12:23:12;9.10;99.90
15113;DHT22;7657;50.140;7.076;2024-02-21T12:25:39;9.10;99.90
15113;DHT22;7657;50.140;7.076;2024-02-21T12:28:07;9.20;99.90
15113;DHT22;7657;50.140;7.076;2024-02-21T12:30:34;9.20;99.90
15113;DHT22;7657;50.140;7.076;2024-02-21T12:33:03;9.40;99.90
15113;DHT22;7657;50.140;7.076;2024-02-21T12:35:30;9.50;99.90
15113;DHT22;7657;50.140;7.076;2024-02-21T12:37:58;9.40;99.90
15113;DHT22;7657;50.140;7.076;2024-02-21T12:40:27;9.50;99.90
15113;DHT22;7657;50.140;7.076;2024-02-21T12:42:58;9.30;99.90
15113;DHT22;7657;50.140;7.076;2024-02-21T12:45:26;9.40;99.90
15113;DHT22;7657;50.140;7.076;2024-02-21T12:47:53;9.40;99.90
15113;DHT22;7657;50.140;7.076;2024-02-21T12:50:20;9.50;99.90
15113;DHT22;7657;50.140;7.076;2024-02-21T12:52:48;9.50;99.90
15113;DHT22;7657;50.140;7.076;2024-02-21T12:55:16;9.60;99.90
15113;DHT22;7657;50.140;7.076;2024-02-21T12:57:43;9.40;99.90
15113;DHT22;7657;50.140;7.076;2024-02-21T13:00:10;9.30;99.90
15113;DHT22;7657;50.140;7.076;2024-02-21T13:02:39;9.40;99.90
15113;DHT22;7657;50.140;7.076;2024-02-21T13:05:06;9.50;99.90
15113;DHT22;7657;50.140;7.076;2024-02-21T13:07:34;9.60;99.90
15113;DHT22;7657;50.140;7.076;2024-02-21T13:10:01;9.70;99.90
15113;DHT22;7657;50.140;7.076;2024-02-21T13:12:30;9.80;99.90
15113;DHT22;7657;50.140;7.076;2024-02-21T13:14:57;9.90;99.90
15113;DHT22;7657;50.140;7.076;2024-02-21T13:17:24;9.90;99.90
15113;DHT22;7657;50.140;7.076;2024-02-21T13:19:57;9.90;99.90
15113;DHT22;7657;50.140;7.076;2024-02-21T13:22:24;9.90;99.90
15113;DHT22;7657;50.140;7.076;2024-02-21T13:24:52;10.00;99.90
15113;DHT22;7657;50.140;7.076;2024-02-21T13:27:19;10.00;99.90
15113;DHT22;7657;50.140;7.076;2024-02-21T13:29:46;10.00;99.90
15113;DHT22;7657;50.140;7.076;2024-02-21T13:32:13;10.10;99.90
15113;DHT22;7657;50.140;7.076;2024-02-21T13:34:41;10.00;99.90
15113;DHT22;7657;50.140;7.076;2024-02-21T13:37:10;10.00;99.90
15113;DHT22;7657;50.140;7.076;2024-02-21T13:39:37;9.90;99.90
15113;DHT22;7657;50.140;7.076;2024-02-21T13:42:05;9.90;99.90
15113;DHT22;7657;50.140;7.076;2024-02-21T13:44:32;10.00;99.90
15113;DHT22;7657;50.140;7.076;2024-02-21T13:47:00;10.10;99.90
15113;DHT22;7657;50.140;7.076;2024-02-21T13:49:27;10.00;99.90
15113;DHT22;7657;50.140;7.076;2024-02-21T13:51:54;10.00;99.90
15113;DHT22;7657;50.140;7.076;2024-02-21T13:54:22;10.00;99.90
15113;DHT22;7657;50.140;7.076;2024-02-21T13:56:49;10.00;99.90
15113;DHT22;7657;50.140;7.076;2024-02-21T13:59:17;10.10;99.90
15113;DHT22;7657;50.140;7.076;2024-02-21T14:01:44;10.00;99.90
15113;DHT22;7657;50.140;7.076;2024-02-21T14:04:11;9.90;99.90
15113;DHT22;7657;50.140;7.076;2024-02-21T14:06:38;9.90;99.90
15113;DHT22;7657;50.140;7.076;2024-02-21T14:09:08;9.70;99.90
15113;DHT22;7657;50.140;7.076;2024-02-21T14:11:37;9.80;99.90
15113;DHT22;7657;50.140;7.076;2024-02-21T14:14:05;9.70;99.90
15113;DHT22;7657;50.140;7.076;2024-02-21T14:16:32;9.80;99.90
15113;DHT22;7657;50.140;7.076;2024-02-21T14:18:59;9.70;99.90
15113;DHT22;7657;50.140;7.076;2024-02-21T14:21:26;9.60;99.90
15113;DHT22;7657;50.140;7.076;2024-02-21T14:23:54;9.70;99.90
15113;DHT22;7657;50.140;7.076;2024-02-21T14:26:22;9.80;99.90
15113;DHT22;7657;50.140;7.076;2024-02-21T14:28:50;9.90;99.90
15113;DHT22;7657;50.140;7.076;2024-02-21T14:31:17;9.80;99.90
15113;DHT22;7657;50.140;7.076;2024-02-21T14:33:44;9.80;99.90
15113;DHT22;7657;50.140;7.076;2024-02-21T14:36:11;9.80;99.90
15113;DHT22;7657;50.140;7.076;2024-02-21T14:38:38;9.80;99.90
15113;DHT22;7657;50.140;7.076;2024-02-21T14:41:05;9.80;99.90
15113;DHT22;7657;50.140;7.076;2024-02-21T14:43:32;9.80;99.90
15113;DHT22;7657;50.140;7.076;2024-02-21T14:46:01;9.80;99.90
15113;DHT22;7657;50.140;7.076;2024-02-21T14:48:30;9.80;99.90
15113;DHT22;7657;50.140;7.076;2024-02-21T14:50:57;9.80;99.90
15113;DHT22;7657;50.140;7.076;2024-02-21T14:53:24;9.80;99.90
15113;DHT22;7657;50.140;7.076;2024-02-21T14:55:51;9.80;99.90
15113;DHT22;7657;50.140;7.076;2024-02-21T14:58:18;9.80;99.90
15113;DHT22;7657;50.140;7.076;2024-02-21T15:00:45;9.80;99.90
15113;DHT22;7657;50.140;7.076;2024-02-21T15:03:16;9.80;99.90
15113;DHT22;7657;50.140;7.076;2024-02-21T15:05:45;9.70;99.90
15113;DHT22;7657;50.140;7.076;2024-02-21T15:08:12;9.70;99.90
15113;DHT22;7657;50.140;7.076;2024-02-21T15:10:42;9.70;99.90
15113;DHT22;7657;50.140;7.076;2024-02-21T15:13:09;9.60;99.90
15113;DHT22;7657;50.140;7.076;2024-02-21T15:15:36;9.60;99.90
15113;DHT22;7657;50.140;7.076;2024-02-21T15:18:03;9.60;99.90
15113;DHT22;7657;50.140;7.076;2024-02-21T15:20:31;9.60;99.90
15113;DHT22;7657;50.140;7.076;2024-02-21T15:22:58;9.50;99.90
15113;DHT22;7657;50.140;7.076;2024-02-21T15:25:26;9.50;99.90
15113;DHT22;7657;50.140;7.076;2024-02-21T15:27:53;9.60;99.90
15113;DHT22;7657;50.140;7.076;2024-02-21T15:30:19;9.60;99.90
15113;DHT22;7657;50.140;7.076;2024-02-21T15:32:46;9.60;99.90
15113;DHT22;7657;50.140;7.076;2024-02-21T15:35:13;9.50;99.90
15113;DHT22;7657;50.140;7.076;2024-02-21T15:37:41;9.50;99.90
15113;DHT22;7657;50.140;7.076;2024-02-21T15:40:09;9.50;99.90
15113;DHT22;7657;50.140;7.076;2024-02-21T15:42:36;9.50;99.90
15113;DHT22;7657;50.140;7.076;2024-02-21T15:45:04;9.40;99.90
15113;DHT22;7657;50.140;7.076;2024-02-21T15:47:32;9.30;99.90
15113;DHT22;7657;50.140;7.076;2024-02-21T15:49:59;9.40;99.90
15113;DHT22;7657;50.140;7.076;2024-02-21T15:52:27;9.40;99.90
15113;DHT22;7657;50.140;7.076;2024-02-21T15:54:55;9.40;99.90
15113;DHT22;7657;50.140;7.076;2024-02-21T15:57:22;9.40;99.90
15113;DHT22;7657;50.140;7.076;2024-02-21T15:59:49;9.40;99.90
15113;DHT22;7657;50.140;7.076;2024-02-21T16:02:19;9.40;99.90
15113;DHT22;7657;50.140;7.076;2024-02-21T16:04:46;9.40;99.90